createdAt,value
2018-11-25T00:00:13.013Z,28.60
2018-11-25T00:02:41.776Z,28.60
2018-11-25T00:05:10.517Z,28.60
2018-11-25T00:07:39.270Z,28.60
2018-11-25T00:10:08.135Z,28.50
2018-11-25T00:12:36.840Z,28.50
2018-11-25T00:15:07.416Z,28.50
2018-11-25T00:17:36.344Z,28.50
2018-11-25T00:20:08.820Z,28.50
2018-11-25T00:22:37.537Z,28.50
2018-11-25T00:25:07.698Z,28.50
2018-11-25T00:27:36.445Z,28.50
2018-11-25T00:30:06.153Z,28.50
2018-11-25T00:32:34.890Z,28.50
2018-11-25T00:35:03.641Z,28.50
2018-11-25T00:37:32.469Z,28.50
2018-11-25T00:40:01.220Z,28.50
2018-11-25T00:42:29.973Z,28.40
2018-11-25T00:44:58.768Z,28.50
2018-11-25T00:47:27.489Z,28.50
2018-11-25T00:49:56.337Z,28.40
2018-11-25T00:52:25.045Z,28.40
2018-11-25T00:54:53.810Z,28.40
2018-11-25T00:57:22.528Z,28.40
2018-11-25T00:59:51.297Z,28.40
2018-11-25T01:02:27.696Z,28.40
2018-11-25T01:04:56.480Z,28.40
2018-11-25T01:07:25.335Z,28.40
2018-11-25T01:09:54.061Z,28.40
2018-11-25T01:12:22.865Z,28.40
2018-11-25T01:14:51.624Z,28.40
2018-11-25T01:17:20.397Z,28.30
2018-11-25T01:19:50.198Z,28.30
2018-11-25T01:22:19.097Z,28.30
2018-11-25T01:24:47.832Z,28.50
2018-11-25T01:27:16.596Z,28.40
2018-11-25T01:29:45.369Z,28.30
2018-11-25T01:32:14.140Z,28.30
2018-11-25T01:34:42.919Z,28.30
2018-11-25T01:37:11.720Z,28.30
2018-11-25T01:39:40.439Z,28.30
2018-11-25T01:42:09.302Z,28.50
2018-11-25T01:44:38.088Z,28.30
2018-11-25T01:47:06.885Z,28.30
2018-11-25T01:49:35.624Z,28.30
2018-11-25T01:52:04.764Z,28.30
2018-11-25T01:54:33.498Z,28.30
2018-11-25T01:57:02.273Z,28.30
2018-11-25T01:59:31.029Z,28.30
2018-11-25T02:01:59.815Z,28.30
2018-11-25T02:04:28.579Z,28.30
2018-11-25T02:06:57.328Z,28.30
2018-11-25T02:09:26.188Z,28.20
2018-11-25T02:11:54.941Z,28.20
2018-11-25T02:14:23.843Z,28.20
2018-11-25T02:16:52.599Z,28.20
2018-11-25T02:19:21.381Z,28.20
2018-11-25T02:21:50.176Z,28.20
2018-11-25T02:24:18.956Z,28.20
2018-11-25T02:26:47.711Z,28.20
2018-11-25T02:29:16.483Z,28.20
2018-11-25T02:31:45.284Z,28.20
2018-11-25T02:34:14.030Z,28.20
2018-11-25T02:36:42.862Z,28.30
2018-11-25T02:39:11.596Z,28.20
2018-11-25T02:41:40.356Z,28.20
2018-11-25T02:44:09.227Z,28.20
2018-11-25T02:46:38.017Z,28.20
2018-11-25T02:49:06.807Z,28.10
2018-11-25T02:51:35.551Z,28.10
2018-11-25T02:54:04.342Z,28.20
2018-11-25T02:56:33.184Z,28.10
2018-11-25T02:59:02.166Z,28.10
2018-11-25T03:01:30.954Z,28.10
2018-11-25T03:03:59.744Z,28.10
2018-11-25T03:06:28.476Z,28.10
2018-11-25T03:08:57.323Z,28.10
2018-11-25T03:11:26.111Z,28.10
2018-11-25T03:13:54.900Z,28.10
2018-11-25T03:16:23.628Z,28.10
2018-11-25T03:18:52.387Z,28.10
2018-11-25T03:21:21.159Z,28.10
2018-11-25T03:23:49.968Z,28.10
2018-11-25T03:26:18.740Z,28.10
2018-11-25T03:28:47.508Z,28.10
2018-11-25T03:31:16.318Z,28.10
2018-11-25T03:33:45.109Z,28.10
2018-11-25T03:36:13.897Z,28.10
2018-11-25T03:38:42.615Z,28.10
2018-11-25T03:41:11.396Z,28.10
2018-11-25T03:43:40.263Z,28.00
2018-11-25T03:46:08.992Z,28.00
2018-11-25T03:48:37.799Z,28.00
2018-11-25T03:51:06.631Z,28.00
2018-11-25T03:53:35.359Z,28.00
2018-11-25T03:56:04.224Z,28.10
2018-11-25T03:58:33.101Z,28.10
2018-11-25T04:01:01.838Z,28.10
2018-11-25T04:03:30.668Z,28.10
2018-11-25T04:05:59.552Z,28.10
2018-11-25T04:08:28.357Z,28.10
2018-11-25T04:10:57.091Z,28.10
2018-11-25T04:13:25.856Z,28.20
2018-11-25T04:15:54.648Z,28.20
2018-11-25T04:18:23.451Z,28.20
2018-11-25T04:20:52.301Z,28.20
2018-11-25T04:23:21.032Z,28.20
2018-11-25T04:25:49.890Z,28.20
2018-11-25T04:28:18.624Z,28.20
2018-11-25T04:30:47.458Z,28.20
2018-11-25T04:33:16.247Z,28.10
2018-11-25T04:35:45.036Z,28.20
2018-11-25T04:38:13.824Z,28.30
2018-11-25T04:40:42.559Z,28.10
2018-11-25T04:43:11.330Z,28.20
2018-11-25T04:45:40.096Z,28.10
2018-11-25T04:48:09.011Z,28.20
2018-11-25T04:50:37.774Z,28.20
2018-11-25T04:53:06.592Z,28.20
2018-11-25T04:55:35.346Z,28.10
2018-11-25T04:58:04.268Z,28.10
2018-11-25T05:00:33.041Z,28.20
2018-11-25T05:03:01.919Z,28.10
2018-11-25T05:05:30.641Z,28.10
2018-11-25T05:07:59.412Z,28.00
2018-11-25T05:10:28.197Z,28.10
2018-11-25T05:12:56.969Z,28.00
2018-11-25T05:15:25.735Z,28.00
2018-11-25T05:17:54.500Z,28.00
2018-11-25T05:20:23.264Z,28.00
2018-11-25T05:22:52.037Z,28.00
2018-11-25T05:25:20.813Z,28.00
2018-11-25T05:27:49.574Z,28.00
2018-11-25T05:30:19.345Z,28.00
2018-11-25T05:32:48.204Z,28.00
2018-11-25T05:35:18.925Z,27.90
2018-11-25T05:37:47.690Z,28.50
2018-11-25T05:40:16.674Z,28.00
2018-11-25T05:42:45.487Z,28.00
2018-11-25T05:45:15.155Z,28.00
2018-11-25T05:47:43.940Z,28.00
2018-11-25T05:50:14.492Z,27.90
2018-11-25T05:52:43.247Z,28.00
2018-11-25T05:55:12.490Z,28.00
2018-11-25T05:57:41.363Z,27.90
2018-11-25T06:00:14.414Z,27.90
2018-11-25T06:02:43.196Z,27.90
2018-11-25T06:05:11.983Z,27.90
2018-11-25T06:07:40.876Z,27.90
2018-11-25T06:10:11.643Z,28.00
2018-11-25T06:12:40.444Z,27.90
2018-11-25T06:15:11.376Z,27.90
2018-11-25T06:17:40.155Z,27.90
2018-11-25T06:20:14.342Z,27.90
2018-11-25T06:22:43.137Z,27.90
2018-11-25T06:25:13.104Z,27.90
2018-11-25T06:27:41.843Z,27.90
2018-11-25T06:30:13.523Z,27.90
2018-11-25T06:32:42.280Z,27.90
2018-11-25T06:35:12.023Z,27.90
2018-11-25T06:37:40.884Z,28.00
2018-11-25T06:40:13.563Z,28.00
2018-11-25T06:42:42.402Z,28.00
2018-11-25T06:45:19.673Z,28.00
2018-11-25T06:47:48.474Z,28.00
2018-11-25T06:50:17.241Z,28.10
2018-11-25T06:52:46.017Z,28.10
2018-11-25T06:55:14.771Z,28.10
2018-11-25T06:57:43.540Z,28.00
2018-11-25T07:00:14.635Z,28.20
2018-11-25T07:02:43.517Z,28.10
2018-11-25T07:05:12.306Z,28.20
2018-11-25T07:07:41.043Z,28.20
2018-11-25T07:10:11.035Z,28.20
2018-11-25T07:12:39.901Z,28.10
2018-11-25T07:15:11.182Z,28.20
2018-11-25T07:17:40.040Z,28.30
2018-11-25T07:20:10.877Z,28.20
2018-11-25T07:22:39.656Z,28.60
2018-11-25T07:25:09.944Z,28.10
2018-11-25T07:27:38.720Z,28.10
2018-11-25T07:30:11.970Z,28.10
2018-11-25T07:32:40.718Z,28.10
2018-11-25T07:35:09.553Z,28.10
2018-11-25T07:37:38.337Z,28.10
2018-11-25T07:40:09.205Z,28.00
2018-11-25T07:42:38.039Z,28.00
2018-11-25T07:45:11.353Z,28.00
2018-11-25T07:47:40.122Z,27.90
2018-11-25T07:50:11.678Z,27.90
2018-11-25T07:52:41.059Z,27.90
2018-11-25T07:55:11.940Z,27.90
2018-11-25T07:57:40.820Z,27.80
2018-11-25T08:00:11.389Z,27.80
2018-11-25T08:02:41.606Z,27.80
2018-11-25T08:05:10.036Z,27.80
2018-11-25T08:07:38.861Z,27.90
2018-11-25T08:10:09.319Z,27.90
2018-11-25T08:12:38.121Z,28.00
2018-11-25T08:15:09.961Z,28.00
2018-11-25T08:17:39.080Z,28.00
2018-11-25T08:20:11.732Z,28.00
2018-11-25T08:22:40.525Z,28.00
2018-11-25T08:25:16.252Z,28.00
2018-11-25T08:27:44.986Z,28.00
2018-11-25T08:30:23.456Z,28.00
2018-11-25T08:32:52.551Z,28.00
2018-11-25T08:35:21.558Z,28.10
2018-11-25T08:37:50.287Z,28.00
2018-11-25T08:40:20.072Z,28.10
2018-11-25T08:42:48.936Z,28.10
2018-11-25T08:45:17.831Z,28.10
2018-11-25T08:47:46.609Z,28.00
2018-11-25T08:50:17.274Z,28.10
2018-11-25T08:52:47.052Z,28.10
2018-11-25T08:55:17.640Z,28.40
2018-11-25T08:57:46.450Z,28.70
2018-11-25T09:00:16.488Z,28.80
2018-11-25T09:02:45.390Z,28.80
2018-11-25T09:05:15.004Z,28.70
2018-11-25T09:07:43.772Z,28.60
2018-11-25T09:10:19.167Z,28.60
2018-11-25T09:12:55.904Z,28.60
2018-11-25T09:15:22.835Z,28.50
2018-11-25T09:17:51.597Z,28.50
2018-11-25T09:20:21.175Z,28.50
2018-11-25T09:22:50.480Z,28.60
2018-11-25T09:25:23.590Z,28.60
2018-11-25T09:27:52.433Z,28.60
2018-11-25T09:30:22.236Z,28.80
2018-11-25T09:32:50.972Z,28.80
2018-11-25T09:35:19.774Z,28.90
2018-11-25T09:37:48.512Z,29.00
2018-11-25T09:40:25.145Z,29.00
2018-11-25T09:42:54.073Z,29.00
2018-11-25T09:45:22.845Z,28.90
2018-11-25T09:47:51.758Z,28.90
2018-11-25T09:50:22.487Z,28.90
2018-11-25T09:52:51.380Z,28.80
2018-11-25T09:55:22.007Z,28.80
2018-11-25T09:57:52.733Z,28.80
2018-11-25T10:00:26.392Z,28.80
2018-11-25T10:02:55.260Z,28.80
2018-11-25T10:05:24.059Z,28.80
2018-11-25T10:07:52.795Z,28.80
2018-11-25T10:10:22.493Z,28.90
2018-11-25T10:12:51.480Z,29.00
2018-11-25T10:15:21.349Z,29.10
2018-11-25T10:17:50.095Z,29.20
2018-11-25T10:20:21.876Z,29.10
2018-11-25T10:22:50.671Z,29.00
2018-11-25T10:25:19.560Z,28.80
2018-11-25T10:27:48.349Z,28.80
2018-11-25T10:30:19.952Z,28.80
2018-11-25T10:32:50.714Z,28.80
2018-11-25T10:35:19.528Z,28.70
2018-11-25T10:37:48.317Z,28.80
2018-11-25T10:40:19.179Z,29.00
2018-11-25T10:42:47.958Z,29.20
2018-11-25T10:45:17.785Z,28.90
2018-11-25T10:47:46.606Z,28.80
2018-11-25T10:50:16.493Z,29.30
2018-11-25T10:52:45.351Z,28.90
2018-11-25T10:55:14.992Z,28.90
2018-11-25T10:57:44.592Z,28.90
2018-11-25T11:00:21.242Z,28.90
2018-11-25T11:02:55.488Z,28.90
2018-11-25T11:05:29.777Z,28.90
2018-11-25T11:07:58.566Z,28.90
2018-11-25T11:10:27.312Z,28.90
2018-11-25T11:12:56.100Z,29.00
2018-11-25T11:15:24.877Z,29.00
2018-11-25T11:17:53.672Z,29.20
2018-11-25T11:20:22.509Z,29.30
2018-11-25T11:22:51.255Z,29.00
2018-11-25T11:25:20.140Z,28.90
2018-11-25T11:27:48.925Z,28.90
2018-11-25T11:30:17.770Z,29.20
2018-11-25T11:32:47.816Z,29.60
2018-11-25T11:35:16.654Z,29.60
2018-11-25T11:37:45.435Z,29.50
2018-11-25T11:40:14.803Z,29.70
2018-11-25T11:42:43.627Z,29.70
2018-11-25T11:45:14.326Z,29.60
2018-11-25T11:47:43.840Z,29.50
2018-11-25T11:50:16.816Z,29.40
2018-11-25T11:52:45.582Z,29.20
2018-11-25T11:55:15.516Z,29.10
2018-11-25T11:57:44.972Z,29.10
2018-11-25T12:00:16.113Z,29.20
2018-11-25T12:02:44.932Z,29.20
2018-11-25T12:05:13.694Z,29.30
2018-11-25T12:07:42.460Z,29.40
2018-11-25T12:10:12.492Z,29.50
2018-11-25T12:12:42.229Z,29.60
2018-11-25T12:15:30.761Z,29.60
2018-11-25T12:17:57.984Z,29.60
2018-11-25T12:20:27.892Z,29.40
2018-11-25T12:22:57.017Z,29.40
2018-11-25T12:25:25.801Z,29.20
2018-11-25T12:27:54.628Z,29.20
2018-11-25T12:30:23.532Z,29.10
2018-11-25T12:32:52.480Z,29.10
2018-11-25T12:35:21.259Z,29.10
2018-11-25T12:37:50.048Z,29.10
2018-11-25T12:40:20.855Z,29.00
2018-11-25T12:42:51.897Z,29.00
2018-11-25T12:45:20.714Z,29.00
2018-11-25T12:47:49.488Z,28.90
2018-11-25T12:50:19.568Z,28.80
2018-11-25T12:52:48.407Z,28.90
2018-11-25T12:55:18.473Z,28.90
2018-11-25T12:57:47.315Z,29.00
2018-11-25T13:00:20.516Z,29.00
2018-11-25T13:02:49.305Z,29.10
2018-11-25T13:05:18.088Z,29.20
2018-11-25T13:07:46.884Z,29.10
2018-11-25T13:10:15.659Z,28.90
2018-11-25T13:12:44.444Z,28.70
2018-11-25T13:15:13.228Z,28.60
2018-11-25T13:17:42.022Z,28.80
2018-11-25T13:20:12.735Z,28.80
2018-11-25T13:22:41.671Z,29.00
2018-11-25T13:25:11.731Z,29.10
2018-11-25T13:27:40.566Z,28.90
2018-11-25T13:30:15.941Z,28.80
2018-11-25T13:32:44.937Z,28.80
2018-11-25T13:35:13.701Z,28.70
2018-11-25T13:37:42.552Z,28.60
2018-11-25T13:40:12.528Z,28.60
2018-11-25T13:42:41.295Z,28.60
2018-11-25T13:45:10.383Z,28.50
2018-11-25T13:47:39.197Z,28.50
2018-11-25T13:50:09.105Z,28.50
2018-11-25T13:52:37.959Z,28.50
2018-11-25T13:55:10.287Z,28.40
2018-11-25T13:57:39.112Z,28.40
2018-11-25T14:00:19.735Z,28.40
2018-11-25T14:02:48.552Z,28.40
2018-11-25T14:05:17.464Z,28.30
2018-11-25T14:07:46.328Z,28.40
2018-11-25T14:10:18.360Z,28.40
2018-11-25T14:12:47.116Z,28.40
2018-11-25T14:15:15.880Z,28.40
2018-11-25T14:17:44.647Z,28.50
2018-11-25T14:20:13.435Z,28.80
2018-11-25T14:22:42.249Z,29.10
2018-11-25T14:25:12.909Z,29.20
2018-11-25T14:27:41.784Z,29.50
2018-11-25T14:30:13.453Z,29.60
2018-11-25T14:32:41.512Z,29.40
2018-11-25T14:35:11.940Z,29.80
2018-11-25T14:37:40.804Z,29.80
2018-11-25T14:40:11.067Z,29.80
2018-11-25T14:42:39.851Z,29.90
2018-11-25T14:45:10.294Z,30.00
2018-11-25T14:47:39.197Z,30.00
2018-11-25T14:50:12.975Z,30.00
2018-11-25T14:52:42.583Z,30.00
2018-11-25T14:55:12.379Z,30.00
2018-11-25T14:57:41.491Z,30.00
2018-11-25T15:00:13.959Z,29.90
2018-11-25T15:02:43.477Z,29.90
2018-11-25T15:05:20.959Z,29.80
2018-11-25T15:07:49.722Z,29.70
2018-11-25T15:10:18.483Z,29.70
2018-11-25T15:12:47.272Z,29.70
2018-11-25T15:15:16.784Z,29.70
2018-11-25T15:17:45.682Z,29.70
2018-11-25T15:20:14.491Z,29.60
2018-11-25T15:22:45.020Z,29.60
2018-11-25T15:25:17.108Z,29.60
2018-11-25T15:27:46.753Z,29.50
2018-11-25T15:30:16.468Z,29.50
2018-11-25T15:32:45.234Z,29.50
2018-11-25T15:35:14.075Z,29.50
2018-11-25T15:37:44.755Z,29.50
2018-11-25T15:40:16.594Z,29.40
2018-11-25T15:42:45.356Z,29.90
2018-11-25T15:45:14.126Z,29.40
2018-11-25T15:47:44.832Z,29.40
2018-11-25T15:50:15.936Z,29.40
2018-11-25T15:52:44.732Z,29.40
2018-11-25T15:55:14.313Z,29.30
2018-11-25T15:57:43.086Z,29.30
2018-11-25T16:00:14.555Z,29.70
2018-11-25T16:02:43.336Z,29.20
2018-11-25T16:05:13.659Z,29.20
2018-11-25T16:07:42.448Z,29.20
2018-11-25T16:10:12.370Z,29.20
2018-11-25T16:12:42.500Z,29.10
2018-11-25T16:15:13.424Z,29.10
2018-11-25T16:17:42.255Z,29.10
2018-11-25T16:20:15.504Z,29.10
2018-11-25T16:22:44.595Z,29.10
2018-11-25T16:25:16.989Z,29.20
2018-11-25T16:27:46.268Z,29.10
2018-11-25T16:30:15.045Z,29.10
2018-11-25T16:32:43.797Z,29.20
2018-11-25T16:35:12.573Z,29.20
2018-11-25T16:37:41.696Z,29.10
2018-11-25T16:40:11.779Z,29.10
2018-11-25T16:42:40.940Z,29.10
2018-11-25T16:45:11.171Z,29.10
2018-11-25T16:47:40.024Z,29.10
2018-11-25T16:50:10.276Z,29.10
2018-11-25T16:52:39.116Z,29.10
2018-11-25T16:55:09.206Z,29.10
2018-11-25T16:57:38.032Z,29.00
2018-11-25T17:00:13.908Z,29.00
2018-11-25T17:02:42.762Z,29.00
2018-11-25T17:05:13.136Z,29.00
2018-11-25T17:07:42.059Z,29.00
2018-11-25T17:10:11.296Z,28.90
2018-11-25T17:12:40.060Z,28.90
2018-11-25T17:15:25.483Z,28.90
2018-11-25T17:17:54.275Z,28.90
2018-11-25T17:20:23.040Z,28.80
2018-11-25T17:22:51.804Z,28.80
2018-11-25T17:25:20.576Z,28.70
2018-11-25T17:27:49.342Z,28.80
2018-11-25T17:30:19.775Z,28.70
2018-11-25T17:32:48.948Z,28.70
2018-11-25T17:35:20.070Z,28.60
2018-11-25T17:37:48.836Z,28.60
2018-11-25T17:40:17.588Z,28.60
2018-11-25T17:42:46.361Z,28.50
2018-11-25T17:45:15.126Z,28.50
2018-11-25T17:47:43.919Z,28.40
2018-11-25T17:50:26.759Z,28.40
2018-11-25T17:52:55.539Z,28.40
2018-11-25T17:55:25.740Z,28.30
2018-11-25T17:57:54.519Z,28.30
2018-11-25T18:00:38.712Z,28.30
2018-11-25T18:03:14.119Z,28.30
2018-11-25T18:05:42.867Z,28.30
2018-11-25T18:08:11.645Z,28.20
2018-11-25T18:10:40.405Z,28.20
2018-11-25T18:13:09.173Z,28.20
2018-11-25T18:15:37.940Z,28.20
2018-11-25T18:18:11.355Z,28.20
2018-11-25T18:20:43.515Z,28.10
2018-11-25T18:23:12.279Z,28.10
2018-11-25T18:25:41.040Z,28.10
2018-11-25T18:28:09.968Z,28.10
2018-11-25T18:30:38.726Z,28.10
2018-11-25T18:33:07.476Z,28.00
2018-11-25T18:35:36.244Z,28.10
2018-11-25T18:38:05.140Z,28.00
2018-11-25T18:40:33.907Z,27.90
2018-11-25T18:43:02.685Z,27.90
2018-11-25T18:45:31.461Z,27.90
2018-11-25T18:48:00.234Z,27.90
2018-11-25T18:50:28.995Z,27.80
2018-11-25T18:52:57.744Z,27.90
2018-11-25T18:55:25.550Z,27.80
2018-11-25T18:57:54.312Z,27.80
2018-11-25T19:00:26.379Z,27.80
2018-11-25T19:02:55.132Z,27.80
2018-11-25T19:05:24.138Z,27.80
2018-11-25T19:07:52.681Z,27.80
2018-11-25T19:10:21.443Z,27.80
2018-11-25T19:12:50.408Z,27.80
2018-11-25T19:15:19.715Z,27.70
2018-11-25T19:17:48.492Z,27.70
2018-11-25T19:20:26.531Z,27.70
2018-11-25T19:22:55.808Z,27.70
2018-11-25T19:25:24.587Z,27.60
2018-11-25T19:27:54.121Z,27.60
2018-11-25T19:30:26.710Z,27.60
2018-11-25T19:32:51.677Z,27.60
2018-11-25T19:35:21.482Z,27.60
2018-11-25T19:37:51.184Z,27.60
2018-11-25T19:40:25.204Z,27.60
2018-11-25T19:42:54.089Z,27.60
2018-11-25T19:45:26.059Z,27.60
2018-11-25T19:47:55.885Z,27.60
2018-11-25T19:50:30.387Z,27.60
2018-11-25T19:52:59.155Z,27.60
2018-11-25T19:55:27.931Z,27.60
2018-11-25T19:57:56.692Z,27.50
2018-11-25T20:00:26.013Z,27.50
2018-11-25T20:02:54.787Z,27.40
2018-11-25T20:05:23.553Z,27.30
2018-11-25T20:07:52.328Z,27.30
2018-11-25T20:10:22.437Z,27.30
2018-11-25T20:12:52.401Z,27.20
2018-11-25T20:15:21.310Z,27.30
2018-11-25T20:17:54.417Z,27.30
2018-11-25T20:20:20.052Z,27.30
2018-11-25T20:22:49.056Z,27.30
2018-11-25T20:25:18.140Z,27.20
2018-11-25T20:27:48.078Z,27.30
2018-11-25T20:30:18.881Z,27.20
2018-11-25T20:32:52.988Z,27.30
2018-11-25T20:35:21.775Z,27.30
2018-11-25T20:37:55.998Z,27.30
2018-11-25T20:40:24.777Z,27.40
2018-11-25T20:42:53.823Z,27.30
2018-11-25T20:45:28.391Z,27.40
2018-11-25T20:47:59.222Z,27.40
2018-11-25T20:50:27.121Z,27.40
2018-11-25T20:53:01.439Z,27.40
2018-11-25T20:55:30.337Z,27.40
2018-11-25T20:57:59.332Z,27.40
2018-11-25T21:00:29.638Z,27.40
2018-11-25T21:02:58.400Z,27.50
2018-11-25T21:05:27.291Z,27.50
2018-11-25T21:07:56.137Z,27.40
2018-11-25T21:10:26.287Z,27.40
2018-11-25T21:12:55.396Z,27.40
2018-11-25T21:15:24.383Z,27.40
2018-11-25T21:17:53.193Z,27.40
2018-11-25T21:20:23.592Z,27.40
2018-11-25T21:22:52.393Z,27.40
2018-11-25T21:25:22.941Z,27.40
2018-11-25T21:27:51.694Z,27.40
2018-11-25T21:30:22.556Z,27.40
2018-11-25T21:32:52.575Z,27.40
2018-11-25T21:35:21.336Z,27.40
2018-11-25T21:37:50.096Z,27.40
2018-11-25T21:40:21.047Z,27.40
2018-11-25T21:42:49.820Z,27.40
2018-11-25T21:45:19.445Z,27.40
2018-11-25T21:47:48.520Z,27.50
2018-11-25T21:50:22.300Z,27.50
2018-11-25T21:52:51.154Z,27.70
2018-11-25T21:55:20.124Z,27.90
2018-11-25T21:57:48.923Z,28.10
2018-11-25T22:00:19.092Z,28.20
2018-11-25T22:02:47.930Z,28.30
2018-11-25T22:05:16.941Z,28.30
2018-11-25T22:07:45.698Z,28.30
2018-11-25T22:10:15.944Z,28.30
2018-11-25T22:12:45.055Z,28.30
2018-11-25T22:15:17.739Z,28.30
2018-11-25T22:17:46.532Z,28.40
2018-11-25T22:20:16.192Z,28.30
2018-11-25T22:22:45.007Z,28.40
2018-11-25T22:25:15.717Z,28.40
2018-11-25T22:27:44.576Z,28.30
2018-11-25T22:30:20.427Z,28.30
2018-11-25T22:32:49.215Z,28.30
2018-11-25T22:35:19.256Z,28.30
2018-11-25T22:37:48.045Z,28.40
2018-11-25T22:40:17.675Z,28.40
2018-11-25T22:42:48.031Z,28.40
2018-11-25T22:45:20.734Z,28.30
2018-11-25T22:47:49.506Z,28.30
2018-11-25T22:50:19.099Z,28.30
2018-11-25T22:52:47.999Z,28.30
2018-11-25T22:55:20.827Z,28.30
2018-11-25T22:57:49.572Z,28.30
2018-11-25T23:00:22.667Z,28.20
2018-11-25T23:02:51.428Z,28.20
2018-11-25T23:05:31.764Z,28.20
2018-11-25T23:08:00.524Z,28.20
2018-11-25T23:10:29.292Z,28.10
2018-11-25T23:12:58.075Z,28.10
2018-11-25T23:15:26.967Z,28.10
2018-11-25T23:17:55.775Z,28.10
2018-11-25T23:20:24.584Z,28.10
2018-11-25T23:22:53.434Z,28.10
2018-11-25T23:25:22.211Z,28.10
2018-11-25T23:27:50.967Z,28.10
2018-11-25T23:30:19.782Z,28.10
2018-11-25T23:32:48.527Z,28.10
2018-11-25T23:35:19.720Z,28.10
2018-11-25T23:37:48.522Z,28.10
2018-11-25T23:40:17.271Z,28.10
2018-11-25T23:42:46.383Z,28.00
2018-11-25T23:45:15.519Z,28.00
2018-11-25T23:47:44.255Z,28.00
2018-11-25T23:50:13.600Z,28.00
2018-11-25T23:52:43.467Z,28.00
2018-11-25T23:55:13.299Z,28.00
2018-11-25T23:57:42.057Z,27.90
